Adam McKennie

Recruteur en chef - Houston Dynamo
20 Janv 2028
Jeudi
Processus

Personnalité

Adaptabilité (19) Ambition (7) Controverse (14) Loyauté (9) Pression (7) Professionnalisme (9) Sportivité (9) Tempérament (10)

Profil

Style d'entraînement Démocratique
Diplôme Continental Pro
Détermination 9
Gestion des joueurs 7
Motivation 7
Discipline 4
Satisfaction professionnelle
100%
Fatigue
0%
Rôle Recruteur en chef
Salaire 48.5K p/s
Contrat 14.03.2028

Performance

Comportement Bon
Efficacité de l'entraînement
38%
Développement des joueurs
55%
Prévention des blessures
50%
Mise en place tactique
55%

Événements récents

A participé à une réunion de recrutement maintenant
A recommandé une cible de transfert maintenant
A recommandé une cible de transfert maintenant
A participé à une réunion de recrutement maintenant
A recommandé une cible de transfert maintenant
A recommandé une cible de transfert maintenant
Négociation de contrat entamée maintenant
En formation continue maintenant

Suivi en cours

216
Joueur Club Statut Capacité Confiance Observé Dernière observation Dernier vote
Dayann Methalie Aston Villa Actif 154 / 154 40% 1 10.01.2028 -
Jamie Wähling Hibernians Actif 92 / 101 40% 1 10.01.2028 -
Ignacio Fernández Boston River Actif 76 / 94 40% 2 09.01.2028 -
Avery Appiah Ajax Actif 117 / 111 40% 1 09.01.2028 -
Kieran Morgan Queens Park Rangers Actif 122 / 134 40% 1 05.01.2028 -
Jayden Joseph Bradford City Actif 90 / 111 40% 1 05.01.2028 -
Emmanuel Sabbi Vancouver Whitecaps Actif 116 / 118 40% 7 03.01.2028 -
Agustín Módica Gimnasia y Esgrima Actif 120 / 122 40% 2 03.01.2028 -
Tiago Gordillo San Miguel Actif 84 / 85 40% 2 02.01.2028 -
William Osula Wrexham Actif 122 / 137 40% 1 02.01.2028 -
Tyrese Campbell Sheffield United Actif 131 / 140 40% 2 31.12.2027 -
Ez Abde Girona Actif 142 / 156 40% 1 31.12.2027 -
Enzo Avaro Odd Actif 107 / 116 40% 2 30.12.2027 -
Facundo Krüger FK Senica Actif 115 / 108 40% 1 30.12.2027 -
Cheikh Sabaly Vancouver Whitecaps Actif 138 / 118 40% 4 27.12.2027 -
Thierno Barry Norwich City Actif 142 / 136 40% 2 27.12.2027 -
Mohamed-Ali Cho Hull City Actif 149 / 143 40% 7 24.12.2027 -
Ante Crnac Rotherham United Actif 130 / 133 40% 2 23.12.2027 -
Breel Embolo Atlanta United FC Actif 150 / 132 40% 4 21.12.2027 -
Rhian Brewster Oxford United Actif 143 / 133 40% 1 21.12.2027 -
Fábio Carvalho Sheffield Wednesday Actif 148 / 156 40% 3 20.12.2027 -
Nathan Ordaz Metalist Actif 125 / 113 40% 2 19.12.2027 -
Alejo Cruz Juventud Actif 143 / 129 40% 4 19.12.2027 -
Luca Martínez Dupuy Godoy Cruz Actif 115 / 112 40% 2 17.12.2027 -
Adalberto Peñaranda Deportivo Tachira Actif 118 / 125 40% 3 16.12.2027 -
Bénie Traoré New York City Actif 120 / 121 40% 7 14.12.2027 -
Luca Franco Arsenal Actif 116 / 107 40% 2 14.12.2027 -
Ernie Weaver AFC Wimbledon Actif 99 / 125 40% 2 13.12.2027 -
Morgan Guilavogui Real Salt Lake Actif 123 / 119 40% 1 13.12.2027 -
Josh Sargent Toronto FC Actif 121 / 122 40% 2 12.12.2027 -
Antony Alonso Deportivo Riestra Actif 110 / 118 40% 1 10.12.2027 -
Wessam Abou Ali Columbus Crew Actif 143 / 135 40% 5 08.12.2027 -
Santiago Sala Güemes Actif 111 / 112 40% 2 08.12.2027 -
Armindo Sieb Los Angeles Football Club Actif 114 / 130 40% 2 07.12.2027 -
Leonardo Campana New England Revolution Actif 144 / 122 40% 2 06.12.2027 -
Ayden Heaven Luton Town Actif 136 / 151 40% 2 06.12.2027 -
Sebastián Cocimano Nueva Chicago Actif 94 / 119 40% 2 05.12.2027 -
Leandro Suhr Boston River Actif 135 / 107 40% 4 03.12.2027 -
Callum O'Hare Sheffield United Actif 120 / 128 40% 3 03.12.2027 -
Luciano Inverso Rentistas Actif 125 / 110 40% 1 01.12.2027 -
Alexis Cuello San Lorenzo Actif 137 / 132 40% 3 30.11.2027 -
Etiosa Ighodaro Kaizer Chiefs Actif 116 / 117 40% 1 29.11.2027 -
Martín Ojeda Orlando City Actif 139 / 130 40% 4 27.11.2027 -
Luciano Cosentino Wanderers Actif 126 / 117 40% 3 25.11.2027 -
Mathias Jørgensen Blackburn Rovers Actif 127 / 123 40% 1 24.11.2027 -
Louis Munteanu DC United Actif 141 / 136 40% 2 22.11.2027 -
Tiziano Dornell Danubio Actif 108 / 122 40% 4 20.11.2027 -
Agustín Anello Philadelphia Union Actif 134 / 126 40% 1 19.11.2027 -
Jeremy Ebobisse Los Angeles Football Club Actif 121 / 115 40% 1 17.11.2027 -
Jesus Ferreira Seattle Sounders Actif 131 / 135 40% 2 16.11.2027 -
Rodrigo Bogarín Barracas Central Actif 139 / 117 40% 2 15.11.2027 -
Rafael Navarro St. Louis CITY SC Actif 115 / 131 40% 1 13.11.2027 -
Ezekiel Kwame Alladoh Philadelphia Union Actif 112 / 125 40% 2 12.11.2027 -
Fernando Mimbacas Juventud Actif 114 / 112 40% 3 11.11.2027 -
Ignacio Ramírez Newell's Old Boys Actif 123 / 134 40% 1 11.11.2027 -
Juan Camilo Córdoba Deportivo Pereira Actif 95 / 103 40% 2 07.11.2027 -
Mauro Carrizo Atlético Tucumán Actif 93 / 104 40% 1 07.11.2027 -
Nicolás Cordero Aldosivi Actif 113 / 127 40% 1 05.11.2027 -
Jefry Zapata Danubio Actif 127 / 117 40% 2 04.11.2027 -
Luis Otávio Colorado Rapids Actif 99 / 112 40% 1 04.11.2027 -
Godwin Oham Warri Wolves Actif 75 / 87 40% 3 03.11.2027 -
Esquerdinha Shrewsbury Town Actif 137 / 114 40% 1 02.11.2027 -
Lucas Camejo River Plate Actif 105 / 102 40% 1 02.11.2027 -
Malick Yalcouyé Brighton Actif 137 / 126 40% 1 31.10.2027 -
Alexander Díaz Deportivo Riestra Actif 135 / 127 40% 1 29.10.2027 -
Juan Rocca Gimnasia y Tiro Actif 93 / 105 40% 2 28.10.2027 -
Celías Ingenthron Vélez Actif 126 / 115 40% 1 28.10.2027 -
Olaniyi Saheed Kwara United Actif 109 / 101 40% 1 28.10.2027 -
Gianluca Pugliese Güemes Actif 101 / 99 40% 1 28.10.2027 -
Alonso Martínez New York City Actif 133 / 122 40% 2 23.10.2027 -
Gift Udoh Ikorodu City Actif 94 / 86 40% 1 23.10.2027 -
Ronan Kpakio Cardiff City Actif 106 / 137 40% 1 23.10.2027 -
Eric Ramírez Llaneros Actif 96 / 118 40% 1 20.10.2027 -
Matthew Litherland Rotherham United Actif 98 / 118 40% 1 19.10.2027 -
Ricky Atletico Venezuela Actif 80 / 90 40% 1 19.10.2027 -
Luca Langoni Colorado Rapids Actif 124 / 132 40% 1 18.10.2027 -
Mikkel Hope Haugesund Actif 86 / 103 40% 2 17.10.2027 -
Matías Canedo Rampla Juniors Actif 74 / 96 40% 1 17.10.2027 -
José Correa Deportivo Tachira Actif 74 / 96 40% 2 16.10.2027 -
Hosea Michael Remo Stars Actif 70 / 92 40% 1 16.10.2027 -
Misael Sosa Godoy Cruz Actif 113 / 112 40% 1 13.10.2027 -
Kévin Denkey FC Cincinnati Actif 116 / 135 40% 1 13.10.2027 Plus d'infos
Indiana Vassilev Philadelphia Union Actif 133 / 115 40% 1 12.10.2027 -
Theo Corbeanu Toronto FC Actif 140 / 125 40% 2 09.10.2027 -
Agustín Paz Progreso Actif 125 / 122 40% 1 09.10.2027 -
Trey Nyoni Rotherham United Actif 137 / 135 40% 1 08.10.2027 -
Ignacio Yepez Cerrito Actif 112 / 102 40% 1 06.10.2027 -
Esteban da Silva Racing Actif 128 / 111 40% 1 03.10.2027 -
Lucas Carrizo Plaza Colonia Actif 100 / 125 40% 1 30.09.2027 -
Ivo Costantino Rentistas Actif 118 / 111 40% 1 28.09.2027 -
Agustín Gallo Tristán Suárez Actif 100 / 124 40% 1 17.09.2027 -
Brandon Vázquez Austin FC Actif 119 / 121 40% 1 16.09.2027 -
Augusto Berrondo Tristán Suárez Actif 90 / 104 40% 1 14.09.2027 -
Uche Jaguar Kwara United Actif 103 / 105 40% 1 13.09.2027 -
Emiliano Saliadarre Miramar Misiones Actif 95 / 108 40% 1 09.09.2027 -
Javier Martínez Almirante Brown Actif 103 / 106 40% 1 06.09.2027 -
Aaron Collins Milton Keynes Dons Perdu 121 / 114 40% 3 22.07.2027 -
Mathias Jørgensen Blackburn Rovers Perdu 115 / 123 40% 2 22.07.2027 -
Joaquín Valiente FC Dallas Actif 116 / 111 48% 1 19.07.2027 -
Joe Gelhardt Hull City Perdu 149 / 125 40% 2 12.07.2027 -
Christ Inao Oulaï Fiorentina Perdu 120 / 152 40% 3 08.07.2027 -
Ibrahim Sabiu Bendel Insurance Actif 84 / 97 40% 2 08.07.2027 -
Razvan Mitrita San Diego Football Club Actif 118 / 120 66% 1 08.07.2027 Approuver
Keagan Tau Ajax Cape Town Actif 92 / 97 40% 3 06.07.2027 -
Aune Heggebø West Bromwich Albion Perdu 137 / 118 40% 2 06.07.2027 -
Peter Shalulile Mamelodi Sundowns Perdu 152 / 120 40% 5 06.07.2027 -
Matías Gómez Granada Négociation 101 / 126 40% 2 06.07.2027 -
Joel McGregor Swindon Town Actif 97 / 100 40% 3 04.07.2027 -
Sam Nombe Milton Keynes Dons Actif 96 / 123 40% 2 02.07.2027 -
Mees Rijks Bristol Rovers Actif 96 / 105 40% 3 30.06.2027 -
Caleb Yirenkyi Coventry City Actif 148 / 154 40% 2 29.06.2027 -
Will Evans Mansfield Town Actif 116 / 96 40% 1 29.06.2027 -
Jan Bürger Gillingham Actif 117 / 116 40% 1 29.06.2027 -
Juan Giménez Celta Actif 122 / 127 40% 2 27.06.2027 -
Lewis Morgan SuperSport United Actif 149 / 120 40% 3 27.06.2027 -
Lorent Tolaj Plymouth Argyle Actif 131 / 121 40% 4 27.06.2027 -
Bradley Fink Wycombe Wanderers Actif 121 / 111 40% 2 23.06.2027 -
Callum Lang Preston Actif 120 / 114 40% 1 23.06.2027 -
Marvelous Freedom Ikorodu City Actif 107 / 84 40% 1 21.06.2027 -
Richard Koné Queens Park Rangers Actif 140 / 129 40% 1 17.06.2027 -
Riley Owen Trento Actif 104 / 110 40% 3 15.06.2027 -
Hany Mukhtar Spezia Actif 157 / 137 40% 2 15.06.2027 -
Zian Flemming Ipswich Town Actif 150 / 123 40% 2 15.06.2027 -
Ezra Mayers West Ham United Actif 135 / 129 40% 1 14.06.2027 -
Joel Ezra Enyimba Actif 91 / 93 40% 1 14.06.2027 -
Stephen Humphrys Bradford City Actif 92 / 118 40% 2 09.06.2027 -
Elijah Adebayo Luton Town Actif 127 / 130 40% 1 09.06.2027 -
David Damboama El-Kanemi Warriors Actif 72 / 101 40% 1 06.06.2027 -
Fuzy Taylor Medeama Actif 68 / 95 40% 1 05.06.2027 -
Mpho Khethang AS Police Actif 91 / 96 40% 1 05.06.2027 -
Edwin Asamoah Berekum Chelsea Actif 93 / 94 40% 1 04.06.2027 -
Morgan Whittaker Middlesbrough Actif 144 / 139 40% 2 01.06.2027 -
Bertrand Traoré Sunderland Actif 135 / 142 40% 2 30.05.2027 -
Davide Bartesaghi AC Milan Actif 121 / 140 40% 2 29.05.2027 -
Luis Vázquez Birmingham Actif 146 / 119 40% 2 29.05.2027 -
Percy Jali Free State Stars Actif 107 / 111 40% 1 29.05.2027 -
Ilyas Ansah Hull City Actif 120 / 129 40% 2 24.05.2027 -
Dom Ballard Leyton Orient Actif 138 / 113 40% 3 23.05.2027 -
Shayne Lavery Cambridge United Actif 121 / 98 40% 1 21.05.2027 -
Iwan Morgan Grimsby Town Actif 106 / 109 40% 1 19.05.2027 -
Aaron Drinan Swindon Town Actif 102 / 96 40% 1 18.05.2027 -
Will Lankshear Middlesbrough Actif 107 / 122 40% 3 16.05.2027 -
Oli McBurnie Hull City Actif 129 / 138 40% 1 15.05.2027 -
Tom Cannon Sheffield United Actif 118 / 126 40% 2 14.05.2027 -
Patson Daka Leicester City Actif 121 / 126 40% 2 09.05.2027 -
Marcus Browne AFC Wimbledon Actif 92 / 103 40% 1 07.05.2027 -
Tyreece Campbell Charlton Athletic Actif 104 / 117 40% 1 06.05.2027 -
Josh Windass Wrexham Actif 118 / 130 40% 1 06.05.2027 -
Bojan Radulović Huddersfield Town Actif 102 / 117 40% 1 05.05.2027 -
Kwame Opoku Asante Kotoko Actif 99 / 98 40% 2 13.04.2027 -
Themba Ngcobo SuperSport United Actif 135 / 118 40% 1 08.04.2027 -
Robert Mizo Ashanti Gold Actif 95 / 115 40% 1 17.03.2027 -
Evidence Makgopa Orlando Pirates Actif 124 / 105 40% 1 17.03.2027 -
Ryan Porteous Los Angeles Football Club Actif 113 / 110 48% 1 08.03.2027 -
Pablo Solari Galatasaray Actif 128 / 128 68% 1 14.02.2027 Approuver
Khama Dolly Utrecht Négociation 123 / 124 67% 1 14.02.2027 Approuver
Marquinhos Spartak Moscow Actif 128 / 128 66% 1 14.02.2027 Approuver
Kazunari Kita Real Sociedad Actif 89 / 111 40% 1 14.02.2027 -
Othmane Maamma Watford Actif 130 / 126 40% 2 11.02.2027 -
Scott Twine Bristol City Actif 138 / 123 40% 1 11.02.2027 -
Jason Knight Bristol City Actif 123 / 123 40% 1 07.02.2027 -
Daniel Kyerewaa Reading Actif 97 / 104 40% 2 06.02.2027 -
Paris Maghoma Norwich City Actif 128 / 133 40% 1 06.02.2027 -
Florentino Luís Ipswich Town Actif 142 / 148 40% 2 05.02.2027 -
David Turnbull Cardiff City Actif 121 / 115 40% 1 05.02.2027 -
Mohamed Belloumi Hull City Actif 139 / 145 40% 1 04.02.2027 -
Ali Ahmed Norwich City Actif 132 / 130 40% 1 04.02.2027 -
Tom Fellows Southampton Actif 153 / 138 40% 1 03.02.2027 -
Cian Ashford Cardiff City Actif 136 / 114 40% 2 02.02.2027 -
Max Bird Birmingham Actif 112 / 121 40% 1 02.02.2027 -
Marcelo Allende Mamelodi Sundowns Actif 142 / 139 40% 6 01.02.2027 -
Tomáš Rigo Stoke City Actif 134 / 125 40% 1 31.01.2027 -
Jack Rudoni Coventry City Actif 118 / 142 40% 1 31.01.2027 -
Matvey Kislyak CSKA Moscow Actif 142 / 142 40% 2 29.01.2027 -
Jack McGlynn Stoke City Actif 128 / 144 40% 1 29.01.2027 -
Christos Mouzakitis Hull City Actif 135 / 127 40% 1 29.01.2027 -
Tommy Conway Middlesbrough Actif 120 / 130 40% 1 23.01.2027 -
Carlos Vicente Birmingham Actif 131 / 138 40% 1 23.01.2027 -
Kwadwo Baah Watford Actif 139 / 138 40% 1 22.01.2027 -
Joseph Wakaso Wa All Stars Actif 98 / 98 40% 2 21.01.2027 -
Giacomo Raspadori Atalanta Actif 134 / 140 40% 1 19.01.2027 -
Thalente Mbatha Orlando Pirates Actif 110 / 121 40% 2 18.01.2027 -
Josh King Chelsea Actif 146 / 143 40% 1 18.01.2027 -
Jesús Rodríguez Como Actif 154 / 153 40% 1 17.01.2027 -
Reda Khadra Qarabag Actif 132 / 132 40% 3 15.01.2027 -
Ronwen Phiri Platinum Stars Actif 111 / 105 40% 2 14.01.2027 -
Jabu Mokone Bidvest Wits Actif 98 / 90 40% 1 13.01.2027 -
Daniel Vernattus Metalist Actif 83 / 107 40% 1 12.01.2027 -
Oswin Appollis Orlando Pirates Actif 130 / 120 40% 6 10.01.2027 -
Cemran Dansin Orlando Pirates Actif 91 / 109 40% 1 08.01.2027 -
Hlompho Lorch Ajax Cape Town Actif 92 / 96 40% 3 05.01.2027 -
Christian Krasnodar Actif 135 / 130 40% 5 04.01.2027 -
Romano Schmid Frosinone Actif 134 / 131 40% 1 03.01.2027 -
Mduduzi Shabalala Kaizer Chiefs Actif 126 / 124 40% 2 31.12.2026 -
Williams Manyama SuperSport United Actif 134 / 122 40% 3 25.12.2026 -
Rubens Dinamo Moscow Actif 132 / 135 40% 1 25.12.2026 -
Max Conway Bolton Wanderers Actif 103 / 123 40% 1 24.12.2026 -
Aidomo Emakhu Oxford United Actif 124 / 110 40% 2 19.12.2026 -
Tomás O'Connor Gimnasia y Esgrima Actif 126 / 127 40% 1 09.12.2026 -
Bongani Modiba Black Aces Actif 104 / 112 40% 2 02.12.2026 -
Mandla Erasmus SuperSport United Actif 139 / 110 40% 5 24.11.2026 -
Aarón Molinas Defensa y Justicia Actif 133 / 130 40% 1 24.11.2026 -
Siyanda Ndlovu Bloemfontein Celtic Actif 96 / 112 40% 2 21.11.2026 -
Angelo Gattermayer Wolfsberger AC Actif 132 / 118 40% 1 21.11.2026 -
Jack Currie Oxford United Actif 130 / 118 40% 1 08.11.2026 -
Tshepang Moremi Orlando Pirates Actif 101 / 108 40% 1 30.10.2026 -
Conrad Wallem Austria Wien Actif 135 / 138 40% 1 27.10.2026 -
George Earthy Reading Actif 113 / 127 40% 1 26.10.2026 -
Iván Angulo Orlando City Actif 123 / 128 40% 1 25.10.2026 -
Caolan Boyd-Munce Wycombe Wanderers Actif 97 / 126 40% 1 16.10.2026 -
João Gomes Aston Villa Actif 160 / 149 40% 1 07.10.2026 -
Onuorah Onyedika Kun Khalifat Actif 70 / 74 40% 1 14.09.2026 -
Harrison McMahon Chelsea Actif 106 / 104 40% 1 13.09.2026 -
Onyia Henry Bendel Insurance Actif 99 / 93 40% 1 12.09.2026 -
Issa Yusuf Shooting Stars Actif 69 / 80 40% 1 11.09.2026 -
Keagan Phiri Platinum Stars Actif 106 / 97 40% 1 09.09.2026 -